Victoria Habour — VRIJ2 — position and weather

sailwx.info

Track history (hours):
 
Tides and Currents Weather Stations Pressure Air Temp Water Temp Dewpoint Dewpoint Depression Visibility Wind Speed Wind Dir Waves Ship Positions

Victoria Habour

Last reported at 2018-May-09 06:55 UTC. Time now 2018-May-28 01:39 UTC.
Position S 05°44' E 108°55'.
Warning: this ship's position is 18 days out of date.

Length 170 m; draft 10.2 m.

Type: Cargo ship. MMSI: 338060044.

Date/timePositionNaut miles runAvg speedWind from/ knotsBaromVisibWave heightAir tempDewpointWater temp
2018-May-09 06:55S 05°44' E 108°55'22913.0
2018-May-08 13:19S 06°43' E 112°38'413.3
2018-May-08 13:00S 06°45' E 112°42'610.1
2018-May-08 12:24S 06°50' E 112°45'3 7.7
2018-May-08 12:00S 06°53' E 112°44'5 9.3
2018-May-08 11:27S 06°58' E 112°43'4 9.4
2018-May-08 11:00S 07°01' E 112°40'5 9.2
2018-May-08 10:29S 07°06' E 112°39'1 0.1
2018-May-08 02:42S 07°07' E 112°39'0 0.0
2018-May-07 21:54S 07°07' E 112°39'0 0.0
2018-May-07 14:48S 07°07' E 112°39'0 0.0
2018-May-07 11:18S 07°07' E 112°39'0 0.0
2018-May-07 10:57S 07°07' E 112°39'0 0.0
2018-May-07 04:18S 07°07' E 112°39'0 0.0
2018-May-07 03:12S 07°07' E 112°39'0 0.0
2018-May-07 01:12S 07°07' E 112°39'0 0.0
2018-May-07 00:00S 07°07' E 112°39'0 0.0
2018-May-06 23:30S 07°07' E 112°39'0 0.0
2018-May-06 20:48S 07°07' E 112°39'0 0.0
2018-May-06 20:30S 07°07' E 112°39'0 0.0
2018-May-06 18:36S 07°07' E 112°39'0 0.0
2018-May-06 18:27S 07°07' E 112°39'0 0.0
2018-May-06 16:24S 07°07' E 112°39'0 0.0
2018-May-06 12:09S 07°07' E 112°39'0 0.0
2018-May-06 11:45S 07°07' E 112°39'0 0.0
2018-May-06 11:27S 07°07' E 112°39'0 0.0
2018-May-06 10:54S 07°07' E 112°39'0 0.0
2018-May-06 09:21S 07°07' E 112°39'0 0.0
2018-May-06 08:57S 07°07' E 112°39'0 0.0
2018-May-06 08:30S 07°07' E 112°39'0 0.0
2018-May-06 07:39S 07°07' E 112°39'0 0.0
2018-May-06 06:39S 07°07' E 112°39'0 0.0
2018-May-06 05:51S 07°07' E 112°39'0 0.0
2018-May-06 04:39S 07°07' E 112°39'0 0.0
2018-May-06 04:09S 07°07' E 112°39'0 0.0
2018-May-06 03:42S 07°07' E 112°39'0 0.0
2018-May-06 01:42S 07°07' E 112°39'0 0.0
2018-May-05 21:45S 07°07' E 112°39'0 0.0
2018-May-05 17:21S 07°07' E 112°39'0 0.0
2018-May-05 14:45S 07°07' E 112°39'0 0.0
2018-May-05 12:06S 07°07' E 112°39'0 0.0
2018-May-05 12:00S 07°07' E 112°39'0 0.0
2018-May-05 11:24S 07°07' E 112°39'0 0.0
2018-May-05 10:18S 07°07' E 112°39'0 0.0
2018-May-05 09:56S 07°07' E 112°39'0 0.0
2018-May-05 09:30S 07°07' E 112°39'0 0.0
2018-May-05 09:00S 07°07' E 112°39'0 0.0
2018-May-05 08:29S 07°07' E 112°39'0 0.2
2018-May-05 07:54S 07°07' E 112°39'1 2.6
2018-May-05 07:30S 07°06' E 112°39'3 6.6
2018-May-05 06:59S 07°02' E 112°40'3 5.5
2018-May-05 06:30S 06°60' E 112°41'5 9.2
2018-May-05 05:55S 06°55' E 112°43'4 8.3
2018-May-05 05:23S 06°51' E 112°45'1 0.1
2018-May-04 19:31S 06°50' E 112°46'0 0.0
2018-May-04 04:22S 06°50' E 112°46'0 0.0
2018-May-04 03:52S 06°50' E 112°46'0 0.0
2018-May-03 12:37S 06°50' E 112°46'0 0.0
2018-May-03 08:46S 06°50' E 112°46'0 0.0
2018-May-03 01:22S 06°50' E 112°46'0 0.0
2018-May-02 20:37S 06°50' E 112°46'0 0.0
2018-May-02 18:43S 06°50' E 112°46'0 0.0
2018-May-02 18:25S 06°50' E 112°46'0 0.0
2018-May-02 10:49S 06°50' E 112°46'0 0.0
2018-May-02 10:25S 06°50' E 112°46'0 0.0
2018-May-02 09:22S 06°50' E 112°46'0 0.0
2018-May-02 08:58S 06°50' E 112°46'0 0.0
2018-May-02 08:28S 06°50' E 112°46'0 0.0
2018-May-02 06:55S 06°50' E 112°46'0 0.1
2018-May-02 06:29S 06°50' E 112°46'0 0.0
2018-May-02 06:00S 06°50' E 112°46'1 1.4
2018-May-02 05:30S 06°49' E 112°46'3 5.2
2018-May-02 04:59S 06°47' E 112°45'2211.9
2018-May-02 03:09S 06°32' E 112°29'1512.3
2018-May-02 01:53S 06°22' E 112°17'512.3
2018-May-02 01:29S 06°18' E 112°14'612.4
2018-May-02 01:00S 06°14' E 112°09'612.3
2018-May-02 00:29S 06°10' E 112°05'2312.3
2018-May-01 22:37S 05°53' E 111°49'212.6
2018-May-01 22:27S 05°52' E 111°47'612.9
2018-May-01 21:59S 05°47' E 111°43'712.9
2018-May-01 21:26S 05°42' E 111°38'5612.2
2018-May-01 16:52S 05°01' E 111°00'411.9
2018-May-01 16:30S 04°58' E 110°57'812.0
2018-May-01 15:50S 04°52' E 110°52'511.9
2018-May-01 15:26S 04°48' E 110°49'511.6
2018-May-01 15:00S 04°44' E 110°45'5411.2
2018-May-01 10:12S 04°05' E 110°09'411.2
2018-May-01 09:53S 04°02' E 110°06'  
Track history (hours):
 
Tides and Currents Weather Stations Pressure Air Temp Water Temp Dewpoint Dewpoint Depression Visibility Wind Speed Wind Dir Waves Ship Positions

Victoria Habour

Last reported at 2018-May-09 06:55 UTC. Time now 2018-May-28 01:39 UTC.
Position S 05°44' E 108°55'.
Warning: this ship's position is 18 days out of date.

Length 170 m; draft 10.2 m.

Type: Cargo ship. MMSI: 338060044.

Date/timePositionNaut miles runAvg speedWind from/ knotsBaromVisibWave heightAir tempDewpointWater temp
2018-May-09 06:55S 05°44' E 108°55'22913.0
2018-May-08 13:19S 06°43' E 112°38'413.3
2018-May-08 13:00S 06°45' E 112°42'610.1
2018-May-08 12:24S 06°50' E 112°45'3 7.7
2018-May-08 12:00S 06°53' E 112°44'5 9.3
2018-May-08 11:27S 06°58' E 112°43'4 9.4
2018-May-08 11:00S 07°01' E 112°40'5 9.2
2018-May-08 10:29S 07°06' E 112°39'1 0.1
2018-May-08 02:42S 07°07' E 112°39'0 0.0
2018-May-07 21:54S 07°07' E 112°39'0 0.0
2018-May-07 14:48S 07°07' E 112°39'0 0.0
2018-May-07 11:18S 07°07' E 112°39'0 0.0
2018-May-07 10:57S 07°07' E 112°39'0 0.0
2018-May-07 04:18S 07°07' E 112°39'0 0.0
2018-May-07 03:12S 07°07' E 112°39'0 0.0
2018-May-07 01:12S 07°07' E 112°39'0 0.0
2018-May-07 00:00S 07°07' E 112°39'0 0.0
2018-May-06 23:30S 07°07' E 112°39'0 0.0
2018-May-06 20:48S 07°07' E 112°39'0 0.0
2018-May-06 20:30S 07°07' E 112°39'0 0.0
2018-May-06 18:36S 07°07' E 112°39'0 0.0
2018-May-06 18:27S 07°07' E 112°39'0 0.0
2018-May-06 16:24S 07°07' E 112°39'0 0.0
2018-May-06 12:09S 07°07' E 112°39'0 0.0
2018-May-06 11:45S 07°07' E 112°39'0 0.0
2018-May-06 11:27S 07°07' E 112°39'0 0.0
2018-May-06 10:54S 07°07' E 112°39'0 0.0
2018-May-06 09:21S 07°07' E 112°39'0 0.0
2018-May-06 08:57S 07°07' E 112°39'0 0.0
2018-May-06 08:30S 07°07' E 112°39'0 0.0
2018-May-06 07:39S 07°07' E 112°39'0 0.0
2018-May-06 06:39S 07°07' E 112°39'0 0.0
2018-May-06 05:51S 07°07' E 112°39'0 0.0
2018-May-06 04:39S 07°07' E 112°39'0 0.0
2018-May-06 04:09S 07°07' E 112°39'0 0.0
2018-May-06 03:42S 07°07' E 112°39'0 0.0
2018-May-06 01:42S 07°07' E 112°39'0 0.0
2018-May-05 21:45S 07°07' E 112°39'0 0.0
2018-May-05 17:21S 07°07' E 112°39'0 0.0
2018-May-05 14:45S 07°07' E 112°39'0 0.0
2018-May-05 12:06S 07°07' E 112°39'0 0.0
2018-May-05 12:00S 07°07' E 112°39'0 0.0
2018-May-05 11:24S 07°07' E 112°39'0 0.0
2018-May-05 10:18S 07°07' E 112°39'0 0.0
2018-May-05 09:56S 07°07' E 112°39'0 0.0
2018-May-05 09:30S 07°07' E 112°39'0 0.0
2018-May-05 09:00S 07°07' E 112°39'0 0.0
2018-May-05 08:29S 07°07' E 112°39'0 0.2
2018-May-05 07:54S 07°07' E 112°39'1 2.6
2018-May-05 07:30S 07°06' E 112°39'3 6.6
2018-May-05 06:59S 07°02' E 112°40'3 5.5
2018-May-05 06:30S 06°60' E 112°41'5 9.2
2018-May-05 05:55S 06°55' E 112°43'4 8.3
2018-May-05 05:23S 06°51' E 112°45'1 0.1
2018-May-04 19:31S 06°50' E 112°46'0 0.0
2018-May-04 04:22S 06°50' E 112°46'0 0.0
2018-May-04 03:52S 06°50' E 112°46'0 0.0
2018-May-03 12:37S 06°50' E 112°46'0 0.0
2018-May-03 08:46S 06°50' E 112°46'0 0.0
2018-May-03 01:22S 06°50' E 112°46'0 0.0
2018-May-02 20:37S 06°50' E 112°46'0 0.0
2018-May-02 18:43S 06°50' E 112°46'0 0.0
2018-May-02 18:25S 06°50' E 112°46'0 0.0
2018-May-02 10:49S 06°50' E 112°46'0 0.0
2018-May-02 10:25S 06°50' E 112°46'0 0.0
2018-May-02 09:22S 06°50' E 112°46'0 0.0
2018-May-02 08:58S 06°50' E 112°46'0 0.0
2018-May-02 08:28S 06°50' E 112°46'0 0.0
2018-May-02 06:55S 06°50' E 112°46'0 0.1
2018-May-02 06:29S 06°50' E 112°46'0 0.0
2018-May-02 06:00S 06°50' E 112°46'1 1.4
2018-May-02 05:30S 06°49' E 112°46'3 5.2
2018-May-02 04:59S 06°47' E 112°45'2211.9
2018-May-02 03:09S 06°32' E 112°29'1512.3
2018-May-02 01:53S 06°22' E 112°17'512.3
2018-May-02 01:29S 06°18' E 112°14'612.4
2018-May-02 01:00S 06°14' E 112°09'612.3
2018-May-02 00:29S 06°10' E 112°05'2312.3
2018-May-01 22:37S 05°53' E 111°49'212.6
2018-May-01 22:27S 05°52' E 111°47'612.9
2018-May-01 21:59S 05°47' E 111°43'712.9
2018-May-01 21:26S 05°42' E 111°38'5612.2
2018-May-01 16:52S 05°01' E 111°00'411.9
2018-May-01 16:30S 04°58' E 110°57'812.0
2018-May-01 15:50S 04°52' E 110°52'511.9
2018-May-01 15:26S 04°48' E 110°49'511.6
2018-May-01 15:00S 04°44' E 110°45'5411.2
2018-May-01 10:12S 04°05' E 110°09'411.2
2018-May-01 09:53S 04°02' E 110°06'  

Dump ship's entire track history